Time;durP1;ratioP1;P1;durP2;ratioP2;P2;SDS_P1;SDS_P2;PMS_P1;PMS_P2;Temp;Humidity;BMP_temperature;BMP_pressure;BME280_temperature;BME280_humidity;BME280_pressure;Samples;Min_cycle;Max_cycle;Signal;HPM_P1;HPM_P2
2022/04/01 00:02:02;;;;;;;0.50;0.50;;;4.80;66.20;;;;;;5052706;28;21018;-69
2022/04/01 00:04:49;;;;;;;0.50;0.50;;;4.80;65.20;;;;;;5052999;28;20844;-68
2022/04/01 00:07:40;;;;;;;0.50;0.50;;;4.80;65.20;;;;;;5052498;28;20842;-69
2022/04/01 00:10:27;;;;;;;0.50;0.50;;;4.90;64.90;;;;;;5052232;28;20835;-70
2022/04/01 00:13:14;;;;;;;0.50;0.50;;;4.80;65.00;;;;;;5052224;28;20432;-69
2022/04/01 00:16:01;;;;;;;0.50;0.50;;;4.80;65.60;;;;;;5054244;28;20503;-68
2022/04/01 00:18:48;;;;;;;0.50;0.50;;;4.80;65.30;;;;;;5055725;28;20917;-70
2022/04/01 00:21:36;;;;;;;0.60;0.60;;;4.90;65.20;;;;;;5058039;28;20475;-69
2022/04/01 00:24:24;;;;;;;0.50;0.50;;;4.90;64.80;;;;;;5056820;28;20917;-69
2022/04/01 00:27:11;;;;;;;0.50;0.50;;;4.90;65.10;;;;;;5054261;28;20425;-69
2022/04/01 00:29:58;;;;;;;0.50;0.50;;;4.80;65.90;;;;;;5054835;28;20456;-69
2022/04/01 00:32:45;;;;;;;0.50;0.50;;;4.80;65.90;;;;;;5054416;28;20835;-70
2022/04/01 00:35:32;;;;;;;0.40;0.40;;;4.70;66.60;;;;;;5052912;28;20464;-68
2022/04/01 00:38:19;;;;;;;0.50;0.50;;;4.60;67.10;;;;;;5052342;28;20512;-71
2022/04/01 00:41:07;;;;;;;0.50;0.50;;;4.60;68.00;;;;;;5052314;28;20439;-70
2022/04/01 00:44:13;;;;;;;0.63;0.63;;;4.60;68.90;;;;;;5052286;28;20471;-69
2022/04/01 00:47:03;;;;;;;0.50;0.50;;;4.50;70.00;;;;;;5051936;28;20428;-69
2022/04/01 00:49:50;;;;;;;0.83;0.80;;;4.60;71.30;;;;;;5052602;28;20441;-69
2022/04/01 00:52:40;;;;;;;0.50;0.50;;;4.60;72.00;;;;;;5052297;28;20427;-70
2022/04/01 00:55:29;;;;;;;0.70;0.70;;;4.60;72.00;;;;;;5052945;28;20827;-69
2022/04/01 00:58:18;;;;;;;1.90;1.80;;;4.50;71.90;;;;;;5053227;28;20420;-70
2022/04/01 01:01:05;;;;;;;0.50;0.50;;;4.40;72.70;;;;;;5051725;28;20574;-70
2022/04/01 01:03:52;;;;;;;0.40;0.40;;;4.40;73.10;;;;;;5052473;28;20485;-69
2022/04/01 01:06:41;;;;;;;0.57;0.57;;;4.40;72.60;;;;;;5053403;28;20788;-69
2022/04/01 01:09:28;;;;;;;0.67;0.67;;;4.40;73.60;;;;;;5056208;28;20893;-69
2022/04/01 01:12:17;;;;;;;0.50;0.50;;;4.30;73.10;;;;;;5056125;28;20807;-70
2022/04/01 01:15:13;;;;;;;0.50;0.50;;;4.30;73.30;;;;;;5056099;28;20487;-69
2022/04/01 01:18:00;;;;;;;0.50;0.50;;;4.20;74.40;;;;;;5055819;28;20798;-70
2022/04/01 01:20:48;;;;;;;0.40;0.40;;;4.30;73.70;;;;;;5055486;28;20448;-69
2022/04/01 01:23:37;;;;;;;0.70;0.70;;;4.30;73.70;;;;;;5055254;28;20424;-70
2022/04/01 01:26:26;;;;;;;0.60;0.60;;;4.30;71.00;;;;;;5056033;28;20440;-70
2022/04/01 01:29:14;;;;;;;0.50;0.50;;;4.20;70.60;;;;;;5055292;28;20528;-69
2022/04/01 01:32:03;;;;;;;0.50;0.50;;;4.10;70.10;;;;;;5055147;28;20420;-69
2022/04/01 01:34:50;;;;;;;0.50;0.50;;;4.10;71.00;;;;;;5055137;28;20431;-69
2022/04/01 01:37:38;;;;;;;0.50;0.50;;;4.10;73.30;;;;;;5055830;28;21107;-69
2022/04/01 01:40:25;;;;;;;0.50;0.50;;;4.10;73.10;;;;;;5055444;28;20440;-70
2022/04/01 01:43:13;;;;;;;1.13;1.13;;;4.10;70.80;;;;;;5055362;28;20544;-69
2022/04/01 01:46:00;;;;;;;0.50;0.50;;;4.10;71.60;;;;;;5054914;28;20414;-70
2022/04/01 01:48:47;;;;;;;0.50;0.50;;;4.00;72.20;;;;;;5055314;28;20448;-70
2022/04/01 01:54:49;;;;;;;0.67;0.67;;;4.00;72.60;;;;;;5054876;28;20420;-70
2022/04/01 01:57:36;;;;;;;0.50;0.50;;;4.00;72.70;;;;;;5055051;28;20424;-69
2022/04/01 02:00:25;;;;;;;0.67;0.67;;;4.00;72.80;;;;;;5054358;28;20952;-70
2022/04/01 02:03:12;;;;;;;0.90;0.90;;;4.00;73.40;;;;;;5055131;28;20475;-70
2022/04/01 02:05:59;;;;;;;0.50;0.50;;;3.90;73.00;;;;;;5054645;28;20787;-69
2022/04/01 02:08:46;;;;;;;0.50;0.50;;;3.90;73.00;;;;;;5054319;28;20416;-70
2022/04/01 02:11:34;;;;;;;0.50;0.50;;;3.80;72.90;;;;;;5054179;28;20420;-70
2022/04/01 02:14:21;;;;;;;0.40;0.40;;;3.80;72.30;;;;;;5054232;28;20417;-69
2022/04/01 02:17:09;;;;;;;0.67;0.67;;;3.80;72.30;;;;;;5054430;28;20463;-68
2022/04/01 02:19:56;;;;;;;0.60;0.60;;;3.70;72.20;;;;;;5053199;28;20445;-71
2022/04/01 02:22:44;;;;;;;0.50;0.50;;;3.60;72.50;;;;;;5054162;28;20421;-69
2022/04/01 02:25:31;;;;;;;0.50;0.50;;;3.50;72.70;;;;;;5054373;28;20914;-69
2022/04/01 02:28:19;;;;;;;0.50;0.50;;;3.50;72.90;;;;;;5054700;28;21082;-70
2022/04/01 02:31:07;;;;;;;0.50;0.50;;;3.60;73.50;;;;;;5054463;28;20437;-67
2022/04/01 02:33:55;;;;;;;1.00;1.00;;;3.50;73.40;;;;;;5055154;28;20472;-70
2022/04/01 02:36:43;;;;;;;0.50;0.50;;;3.50;73.10;;;;;;5054685;28;20907;-68
2022/04/01 02:39:30;;;;;;;0.50;0.50;;;3.40;73.90;;;;;;5054744;28;20441;-68
2022/04/01 02:42:17;;;;;;;0.50;0.50;;;3.40;74.10;;;;;;5053559;28;20457;-69
2022/04/01 02:45:05;;;;;;;0.57;0.57;;;3.40;74.70;;;;;;5053945;28;20440;-68
2022/04/01 02:47:52;;;;;;;0.50;0.50;;;3.40;74.40;;;;;;5054350;28;20423;-69
2022/04/01 02:50:40;;;;;;;0.50;0.50;;;3.50;74.20;;;;;;5053700;28;20448;-68
2022/04/01 02:53:27;;;;;;;0.50;0.50;;;3.40;74.70;;;;;;5053297;28;20496;-68
2022/04/01 02:56:14;;;;;;;0.50;0.50;;;3.50;74.80;;;;;;5054379;28;20582;-69
2022/04/01 02:59:02;;;;;;;0.83;0.83;;;3.50;75.10;;;;;;5053331;28;20453;-70
2022/04/01 03:01:49;;;;;;;0.50;0.50;;;3.50;74.90;;;;;;5053466;28;20421;-68
2022/04/01 03:04:36;;;;;;;1.70;1.60;;;3.50;74.50;;;;;;5053381;28;20510;-71
2022/04/01 03:07:25;;;;;;;0.50;0.50;;;3.30;73.80;;;;;;5053276;28;20835;-66
2022/04/01 03:10:12;;;;;;;0.80;0.80;;;3.40;74.70;;;;;;5052964;28;20503;-70
2022/04/01 03:13:00;;;;;;;0.80;0.73;;;3.40;74.40;;;;;;5052969;28;20479;-68
2022/04/01 03:15:47;;;;;;;0.50;0.50;;;3.30;75.60;;;;;;5052945;28;21106;-69
2022/04/01 03:18:39;;;;;;;0.60;0.60;;;3.30;75.90;;;;;;5052716;28;20838;-68
2022/04/01 03:21:28;;;;;;;0.50;0.50;;;3.30;76.10;;;;;;5052187;28;20423;-68
2022/04/01 03:24:17;;;;;;;0.50;0.50;;;3.30;75.80;;;;;;5052596;28;20489;-68
2022/04/01 03:27:05;;;;;;;0.60;0.60;;;3.20;75.70;;;;;;5052823;28;20425;-69
2022/04/01 03:29:52;;;;;;;0.50;0.50;;;3.20;75.70;;;;;;5052043;28;20460;-68
2022/04/01 03:32:40;;;;;;;0.50;0.50;;;3.20;76.40;;;;;;5052162;28;20425;-69
2022/04/01 03:35:27;;;;;;;0.50;0.50;;;3.20;76.80;;;;;;5053369;28;20422;-69
2022/04/01 03:38:15;;;;;;;1.63;1.53;;;3.20;77.30;;;;;;5053357;28;20945;-69
2022/04/01 03:41:05;;;;;;;0.50;0.50;;;3.10;76.60;;;;;;5052437;28;20447;-69
2022/04/01 03:43:52;;;;;;;0.50;0.50;;;3.00;76.30;;;;;;5052530;28;20425;-69
2022/04/01 03:46:47;;;;;;;0.50;0.50;;;3.00;77.20;;;;;;5052387;28;20886;-70
2022/04/01 03:49:36;;;;;;;1.27;1.27;;;3.00;76.90;;;;;;5052616;28;20441;-68
2022/04/01 03:52:25;;;;;;;0.50;0.50;;;3.00;76.10;;;;;;5052093;28;20424;-69
2022/04/01 03:55:12;;;;;;;0.50;0.50;;;3.00;76.00;;;;;;5053111;28;20798;-68
2022/04/01 03:58:06;;;;;;;0.47;0.47;;;3.00;76.80;;;;;;5052578;28;20424;-68
2022/04/01 04:00:54;;;;;;;0.50;0.50;;;2.90;76.40;;;;;;5052849;28;20956;-69
2022/04/01 04:03:42;;;;;;;0.50;0.50;;;2.90;75.70;;;;;;5052597;28;20915;-68
2022/04/01 04:06:28;;;;;;;0.43;0.43;;;2.90;76.30;;;;;;5052190;28;20409;-67
2022/04/01 04:09:17;;;;;;;0.50;0.50;;;2.90;76.70;;;;;;5052943;28;20447;-70
2022/04/01 04:12:05;;;;;;;0.50;0.50;;;2.90;76.80;;;;;;5051782;28;20425;-68
2022/04/01 04:14:55;;;;;;;0.50;0.50;;;2.80;76.50;;;;;;5053675;28;20949;-70
2022/04/01 04:17:45;;;;;;;0.50;0.50;;;2.80;77.60;;;;;;5052135;28;21026;-71
2022/04/01 04:20:35;;;;;;;0.60;0.60;;;2.80;78.00;;;;;;5052723;28;20445;-69
2022/04/01 04:23:26;;;;;;;0.60;0.60;;;2.80;77.30;;;;;;5052006;28;20512;-71
2022/04/01 04:26:15;;;;;;;0.53;0.53;;;2.80;77.10;;;;;;5060242;28;20496;-70
2022/04/01 04:29:09;;;;;;;0.50;0.50;;;2.00;76.80;;;;;;5064093;28;21491;-70
2022/04/01 04:32:03;;;;;;;0.80;0.80;;;2.70;78.10;;;;;;5060634;28;20933;-69
2022/04/01 04:34:51;;;;;;;0.50;0.50;;;2.70;77.80;;;;;;5060134;28;20425;-69
2022/04/01 04:37:44;;;;;;;0.80;0.73;;;2.70;78.10;;;;;;5060597;28;20993;-69
2022/04/01 04:40:34;;;;;;;0.50;0.50;;;2.60;78.30;;;;;;5058435;28;20447;-69
2022/04/01 04:43:23;;;;;;;0.53;0.53;;;2.60;77.00;;;;;;5061807;28;20800;-67
2022/04/01 04:46:11;;;;;;;0.50;0.50;;;2.60;77.70;;;;;;5061471;28;20425;-69
2022/04/01 04:48:59;;;;;;;0.50;0.50;;;2.60;77.60;;;;;;5062514;28;20436;-70
2022/04/01 04:51:48;;;;;;;0.67;0.67;;;2.60;77.50;;;;;;5062035;28;20499;-69
2022/04/01 04:54:40;;;;;;;0.50;0.50;;;2.70;77.60;;;;;;5060938;28;20432;-69
2022/04/01 04:57:28;;;;;;;0.60;0.60;;;2.70;77.50;;;;;;5063374;28;20461;-70
2022/04/01 05:00:19;;;;;;;0.83;0.83;;;2.60;77.20;;;;;;5064099;28;20539;-71
2022/04/01 05:03:19;;;;;;;0.50;0.50;;;2.60;77.80;;;;;;5057111;28;20424;-71
2022/04/01 05:06:11;;;;;;;0.50;0.50;;;2.60;77.80;;;;;;5056295;28;20836;-70
2022/04/01 05:09:04;;;;;;;0.50;0.50;;;2.60;78.40;;;;;;5056882;28;20421;-69
2022/04/01 05:11:59;;;;;;;0.50;0.50;;;2.60;78.70;;;;;;5056067;28;20965;-70
2022/04/01 05:15:00;;;;;;;0.50;0.50;;;2.70;77.40;;;;;;5056045;28;20778;-69
2022/04/01 05:17:54;;;;;;;0.50;0.50;;;2.60;78.20;;;;;;5056630;28;20976;-69
2022/04/01 05:20:51;;;;;;;0.50;0.50;;;2.60;78.50;;;;;;5055171;28;21015;-71
2022/04/01 05:23:54;;;;;;;0.70;0.70;;;2.60;79.00;;;;;;5056388;28;20424;-70
2022/04/01 05:26:43;;;;;;;0.50;0.50;;;2.60;78.70;;;;;;5055458;28;20420;-69
2022/04/01 05:29:42;;;;;;;0.50;0.50;;;2.70;78.20;;;;;;5054840;28;20456;-71
2022/04/01 05:32:33;;;;;;;0.70;0.70;;;2.70;78.80;;;;;;5056315;28;20509;-69
2022/04/01 05:35:21;;;;;;;0.50;0.50;;;2.70;79.10;;;;;;5055026;28;20503;-71
2022/04/01 05:38:09;;;;;;;1.37;0.70;;;2.70;78.80;;;;;;5052327;28;21002;-70
2022/04/01 05:40:57;;;;;;;0.97;0.57;;;2.70;78.60;;;;;;5055069;28;20494;-71
2022/04/01 05:43:47;;;;;;;0.60;0.60;;;2.70;78.10;;;;;;5055515;28;20425;-69
2022/04/01 05:46:35;;;;;;;0.63;0.63;;;2.70;78.50;;;;;;5054318;28;20425;-68
2022/04/01 05:49:24;;;;;;;0.50;0.50;;;2.70;77.00;;;;;;5036319;28;20433;-69
2022/04/01 05:52:12;;;;;;;0.80;0.60;;;2.70;77.40;;;;;;5054774;28;20421;-69
2022/04/01 05:55:00;;;;;;;0.50;0.50;;;2.80;78.20;;;;;;5053439;28;20440;-69
2022/04/01 05:57:48;;;;;;;0.50;0.50;;;2.90;78.60;;;;;;5054722;28;20463;-68
2022/04/01 06:00:41;;;;;;;0.50;0.50;;;2.80;77.50;;;;;;5053516;28;20831;-68
2022/04/01 06:03:43;;;;;;;0.50;0.50;;;2.90;77.90;;;;;;5049867;28;20460;-69
2022/04/01 06:06:36;;;;;;;0.50;0.50;;;3.00;78.00;;;;;;5040242;28;20423;-69
2022/04/01 06:09:34;;;;;;;0.67;0.67;;;3.10;78.70;;;;;;5053999;28;20502;-68
2022/04/01 06:12:29;;;;;;;0.50;0.50;;;3.10;78.80;;;;;;5055756;28;20425;-69
2022/04/01 06:15:24;;;;;;;0.50;0.50;;;3.10;79.00;;;;;;5066324;28;20439;-68
2022/04/01 06:18:23;;;;;;;0.47;0.47;;;3.20;80.00;;;;;;5042159;28;20513;-69
2022/04/01 06:21:15;;;;;;;1.20;1.10;;;3.30;79.90;;;;;;5068881;28;20428;-68
2022/04/01 06:24:09;;;;;;;0.70;0.70;;;3.40;79.40;;;;;;5054012;28;20430;-68
2022/04/01 06:27:00;;;;;;;0.50;0.50;;;3.40;79.50;;;;;;5054481;28;20579;-69
2022/04/01 06:29:58;;;;;;;0.70;0.70;;;3.50;79.30;;;;;;5071078;28;20467;-69
2022/04/01 06:32:56;;;;;;;0.50;0.50;;;3.50;79.10;;;;;;5061326;28;20424;-68
2022/04/01 06:35:48;;;;;;;0.57;0.57;;;3.60;79.90;;;;;;5056581;28;20818;-69
2022/04/01 06:38:41;;;;;;;0.50;0.50;;;3.60;78.70;;;;;;5046925;28;20471;-69
2022/04/01 06:41:31;;;;;;;0.90;0.90;;;3.70;79.00;;;;;;5059794;28;20451;-68
2022/04/01 06:44:18;;;;;;;0.50;0.50;;;3.70;79.00;;;;;;5044722;28;20428;-69
2022/04/01 06:47:05;;;;;;;0.80;0.80;;;3.70;79.70;;;;;;5061614;28;20798;-68
2022/04/01 06:49:53;;;;;;;0.50;0.50;;;3.80;79.20;;;;;;5069887;28;20818;-68
2022/04/01 06:52:40;;;;;;;0.73;0.73;;;3.90;78.50;;;;;;5059525;28;20432;-69
2022/04/01 06:55:27;;;;;;;0.50;0.50;;;3.90;77.80;;;;;;5059475;28;20429;-69
2022/04/01 06:58:15;;;;;;;0.73;0.73;;;3.90;78.60;;;;;;5050839;28;20487;-70
2022/04/01 07:01:03;;;;;;;0.67;0.67;;;3.90;79.20;;;;;;5064860;28;20444;-69
2022/04/01 07:03:50;;;;;;;1.30;1.30;;;4.00;78.50;;;;;;5050734;28;20440;-68
2022/04/01 07:06:39;;;;;;;0.60;0.60;;;4.00;77.70;;;;;;5051016;28;20436;-68
2022/04/01 07:09:26;;;;;;;0.50;0.50;;;4.00;78.80;;;;;;5048147;28;21004;-69
2022/04/01 07:12:13;;;;;;;0.80;0.80;;;4.10;78.80;;;;;;5049133;28;21155;-68
2022/04/01 07:15:00;;;;;;;0.60;0.60;;;4.30;78.90;;;;;;5058352;28;20473;-69
2022/04/01 07:17:47;;;;;;;1.07;0.80;;;4.30;77.60;;;;;;5034657;28;20958;-69
2022/04/01 07:20:34;;;;;;;0.70;0.70;;;4.40;78.00;;;;;;5060842;28;20455;-68
2022/04/01 07:23:22;;;;;;;0.50;0.50;;;4.50;78.50;;;;;;5051799;28;20483;-69
2022/04/01 07:26:10;;;;;;;0.70;0.70;;;4.50;77.70;;;;;;5042784;28;20477;-67
2022/04/01 07:28:57;;;;;;;0.50;0.50;;;4.40;77.40;;;;;;5053070;28;20429;-68
2022/04/01 07:34:54;;;;;;;0.50;0.50;;;4.70;77.80;;;;;;5041151;28;20429;-69
2022/04/01 07:37:42;;;;;;;0.50;0.50;;;4.80;77.40;;;;;;5031139;28;20465;-69
2022/04/01 07:40:30;;;;;;;0.50;0.50;;;5.00;77.30;;;;;;5030892;28;20469;-69
2022/04/01 07:43:17;;;;;;;0.50;0.50;;;5.10;76.10;;;;;;5032713;28;20949;-69
2022/04/01 07:46:05;;;;;;;0.50;0.50;;;5.10;75.50;;;;;;5033701;28;20514;-69
2022/04/01 07:48:51;;;;;;;0.50;0.50;;;5.20;75.30;;;;;;5032432;28;20428;-69
2022/04/01 07:51:39;;;;;;;0.50;0.50;;;5.30;76.00;;;;;;5032461;28;20429;-68
2022/04/01 07:54:26;;;;;;;0.60;0.60;;;5.50;76.30;;;;;;5033309;28;20432;-69
2022/04/01 07:57:15;;;;;;;0.50;0.50;;;5.50;74.40;;;;;;5031517;28;20465;-69
2022/04/01 08:00:03;;;;;;;0.50;0.50;;;5.60;74.30;;;;;;5032209;28;20836;-69
2022/04/01 08:02:54;;;;;;;6.10;1.57;;;5.60;74.10;;;;;;5033009;28;20432;-69
2022/04/01 08:05:41;;;;;;;0.50;0.50;;;5.60;75.60;;;;;;5032643;28;20422;-69
2022/04/01 08:08:28;;;;;;;0.50;0.50;;;5.60;75.80;;;;;;5031353;28;20434;-67
2022/04/01 08:11:15;;;;;;;0.60;0.60;;;5.90;75.00;;;;;;5038709;28;20443;-68
2022/04/01 08:14:04;;;;;;;0.50;0.50;;;6.20;74.50;;;;;;5046430;28;20478;-66
2022/04/01 08:16:51;;;;;;;0.57;0.57;;;6.40;74.00;;;;;;5050636;28;21047;-67
2022/04/01 08:19:39;;;;;;;0.40;0.40;;;6.70;74.40;;;;;;5051948;28;20506;-68
2022/04/01 08:22:25;;;;;;;0.43;0.43;;;6.60;72.70;;;;;;5051429;28;20436;-68
2022/04/01 08:25:12;;;;;;;0.50;0.50;;;6.70;72.90;;;;;;5052319;28;20844;-67
2022/04/01 08:27:59;;;;;;;0.50;0.50;;;6.70;69.60;;;;;;5045521;28;20952;-67
2022/04/01 08:30:48;;;;;;;0.73;0.73;;;6.50;70.10;;;;;;5051117;28;20467;-69
2022/04/01 08:33:35;;;;;;;0.50;0.50;;;6.70;71.40;;;;;;5055096;28;20424;-68
2022/04/01 08:36:22;;;;;;;0.50;0.50;;;6.70;69.40;;;;;;5072047;28;20935;-67
2022/04/01 08:39:09;;;;;;;0.50;0.50;;;6.70;69.20;;;;;;5071865;28;20478;-68
2022/04/01 08:41:58;;;;;;;0.67;0.67;;;6.90;69.10;;;;;;5071584;28;20936;-68
2022/04/01 08:44:46;;;;;;;0.50;0.50;;;6.90;67.90;;;;;;5071712;28;20496;-67
2022/04/01 08:47:38;;;;;;;0.50;0.50;;;6.80;66.30;;;;;;5072314;28;20415;-67
2022/04/01 08:50:25;;;;;;;0.70;0.60;;;7.00;67.30;;;;;;5038460;28;20453;-67
2022/04/01 08:53:12;;;;;;;0.47;0.47;;;7.00;65.50;;;;;;5031112;28;20513;-67
2022/04/01 08:55:59;;;;;;;0.60;0.60;;;7.20;65.30;;;;;;5031759;28;20531;-68
2022/04/01 08:58:46;;;;;;;0.50;0.50;;;7.30;66.20;;;;;;5031186;28;20469;-67
2022/04/01 09:01:41;;;;;;;0.80;0.80;;;7.50;66.20;;;;;;5030445;28;20479;-67
2022/04/01 09:04:29;;;;;;;0.60;0.60;;;7.60;64.60;;;;;;5030214;28;20827;-67
2022/04/01 09:07:17;;;;;;;1.00;0.90;;;7.40;62.70;;;;;;5039051;28;20487;-67
2022/04/01 09:10:05;;;;;;;0.50;0.50;;;7.50;63.80;;;;;;5049104;28;20463;-67
2022/04/01 09:12:53;;;;;;;0.50;0.50;;;7.70;64.00;;;;;;5043536;28;20807;-68
2022/04/01 09:15:42;;;;;;;0.50;0.50;;;8.00;64.70;;;;;;5049443;28;20566;-68
2022/04/01 09:18:40;;;;;;;0.50;0.50;;;7.90;62.70;;;;;;5049918;28;20461;-67
2022/04/01 09:21:31;;;;;;;0.70;0.70;;;8.00;62.40;;;;;;5050167;28;20793;-67
2022/04/01 09:24:18;;;;;;;0.50;0.50;;;8.20;62.50;;;;;;5048729;28;20432;-67
2022/04/01 09:27:05;;;;;;;0.40;0.40;;;8.40;61.90;;;;;;5050394;28;20436;-67
2022/04/01 09:29:52;;;;;;;0.50;0.50;;;8.60;61.90;;;;;;5053050;28;20452;-67
2022/04/01 09:32:41;;;;;;;0.87;0.87;;;8.80;62.50;;;;;;5053602;28;20437;-67
2022/04/01 09:35:29;;;;;;;0.90;0.90;;;9.00;62.30;;;;;;5053628;28;20432;-67
2022/04/01 09:38:18;;;;;;;0.40;0.40;;;9.00;59.60;;;;;;5054730;28;20456;-68
2022/04/01 09:41:08;;;;;;;0.50;0.50;;;8.90;60.00;;;;;;5054888;28;20448;-67
2022/04/01 09:44:01;;;;;;;0.57;0.57;;;9.00;59.90;;;;;;5054541;28;20428;-67
2022/04/01 09:46:50;;;;;;;0.40;0.40;;;8.90;57.50;;;;;;5054935;28;20431;-68
2022/04/01 09:49:39;;;;;;;0.77;0.77;;;8.70;57.30;;;;;;5054402;28;20506;-67
2022/04/01 09:52:27;;;;;;;0.50;0.50;;;8.50;56.00;;;;;;5054200;28;20436;-67
2022/04/01 09:55:15;;;;;;;0.80;0.60;;;8.60;57.20;;;;;;5054793;28;20503;-67
2022/04/01 09:58:03;;;;;;;0.50;0.50;;;8.50;57.00;;;;;;5054095;28;20468;-68
2022/04/01 10:00:51;;;;;;;0.50;0.50;;;8.70;57.00;;;;;;5054678;28;20451;-67
2022/04/01 10:03:38;;;;;;;0.47;0.47;;;8.70;57.10;;;;;;5054189;28;20436;-67
2022/04/01 10:06:25;;;;;;;0.50;0.50;;;8.70;55.90;;;;;;5053940;28;21010;-69
2022/04/01 10:09:13;;;;;;;0.50;0.50;;;8.90;56.90;;;;;;5054596;28;20448;-66
2022/04/01 10:12:06;;;;;;;1.50;1.43;;;9.10;57.10;;;;;;5051860;28;20449;-67
2022/04/01 10:14:57;;;;;;;0.50;0.50;;;9.20;57.20;;;;;;5033945;28;20410;-68
2022/04/01 10:17:46;;;;;;;0.40;0.40;;;9.30;56.80;;;;;;5034601;28;20461;-67
2022/04/01 10:20:34;;;;;;;0.53;0.53;;;9.30;56.20;;;;;;5034059;28;20450;-67
2022/04/01 10:23:24;;;;;;;0.50;0.50;;;9.40;55.20;;;;;;5034280;28;20437;-67
2022/04/01 10:26:15;;;;;;;0.47;0.47;;;9.00;54.60;;;;;;5038263;28;20848;-66
2022/04/01 10:29:05;;;;;;;0.50;0.50;;;8.90;56.10;;;;;;5046923;28;20815;-68
2022/04/01 10:31:55;;;;;;;0.40;0.40;;;9.00;56.60;;;;;;5052672;28;20439;-68
2022/04/01 10:34:46;;;;;;;0.40;0.40;;;9.20;57.10;;;;;;5052799;28;20510;-68
2022/04/01 10:37:34;;;;;;;0.50;0.50;;;9.30;57.10;;;;;;5052188;28;20440;-67
2022/04/01 10:40:22;;;;;;;20.33;2.17;;;9.40;55.60;;;;;;5052503;28;20475;-66
2022/04/01 10:43:11;;;;;;;0.50;0.50;;;9.40;55.00;;;;;;5051033;28;20464;-68
2022/04/01 10:46:03;;;;;;;0.50;0.50;;;9.30;54.40;;;;;;5051073;28;20459;-68
2022/04/01 10:52:22;;;;;;;0.50;0.50;;;9.40;55.70;;;;;;5065354;28;20844;-67
2022/04/01 10:55:12;;;;;;;0.70;0.70;;;9.50;55.80;;;;;;5042853;28;20428;-68
2022/04/01 10:58:09;;;;;;;0.40;0.40;;;9.40;55.10;;;;;;5061069;28;20463;-70
2022/04/01 11:00:57;;;;;;;0.40;0.40;;;9.50;55.00;;;;;;5056710;28;20447;-67
2022/04/01 11:03:52;;;;;;;0.50;0.50;;;9.60;54.60;;;;;;5063063;28;20429;-67
2022/04/01 11:06:51;;;;;;;0.50;0.50;;;9.60;55.60;;;;;;5069029;28;20420;-67
2022/04/01 11:09:46;;;;;;;0.47;0.47;;;9.70;53.80;;;;;;5063099;28;20444;-67
2022/04/01 11:12:36;;;;;;;1.10;1.10;;;9.80;53.70;;;;;;5056476;28;20431;-67
2022/04/01 11:15:29;;;;;;;1.77;1.77;;;10.10;53.00;;;;;;5046170;28;20439;-68
2022/04/01 11:18:16;;;;;;;0.50;0.50;;;10.30;52.80;;;;;;5058659;28;20972;-67
2022/04/01 11:21:05;;;;;;;0.50;0.50;;;10.30;52.20;;;;;;5040550;28;20439;-67
2022/04/01 11:24:03;;;;;;;1.00;0.90;;;10.30;52.20;;;;;;5062242;28;20429;-68
2022/04/01 11:26:50;;;;;;;1.03;0.93;;;10.20;50.00;;;;;;5069301;28;21049;-68
2022/04/01 11:29:37;;;;;;;1.27;0.93;;;9.90;51.30;;;;;;5061503;28;20471;-68
2022/04/01 11:32:24;;;;;;;0.50;0.50;;;9.80;50.80;;;;;;5072460;28;20424;-67
2022/04/01 11:35:13;;;;;;;0.40;0.40;;;9.90;52.40;;;;;;5043571;28;20840;-67
2022/04/01 11:38:02;;;;;;;0.50;0.50;;;10.20;51.60;;;;;;5060194;28;20466;-68
2022/04/01 11:40:51;;;;;;;0.50;0.50;;;10.40;51.40;;;;;;5068043;28;20955;-68
2022/04/01 11:43:38;;;;;;;0.40;0.40;;;10.50;51.10;;;;;;5052151;28;20971;-69
2022/04/01 11:46:25;;;;;;;0.50;0.50;;;10.50;49.10;;;;;;5065687;28;20438;-67
2022/04/01 11:49:12;;;;;;;0.60;0.60;;;10.40;50.00;;;;;;5043227;28;20436;-67
2022/04/01 11:51:59;;;;;;;0.60;0.60;;;10.50;50.40;;;;;;5059639;28;20424;-68
2022/04/01 11:54:49;;;;;;;0.60;0.60;;;10.60;49.60;;;;;;5068979;28;20504;-70
2022/04/01 11:57:35;;;;;;;0.43;0.43;;;10.70;49.00;;;;;;5052781;28;20428;-68
2022/04/01 12:00:26;;;;;;;0.50;0.50;;;10.80;49.20;;;;;;5052946;28;20542;-70
2022/04/01 12:03:13;;;;;;;6.53;1.07;;;11.00;49.00;;;;;;5032886;28;20491;-68
2022/04/01 12:09:04;;;;;;;1.20;1.10;;;10.50;47.40;;;;;;5032129;28;20965;-68
2022/04/01 12:11:52;;;;;;;0.50;0.50;;;9.90;47.90;;;;;;5031950;28;20425;-69
2022/04/01 12:14:40;;;;;;;0.73;0.73;;;10.00;47.90;;;;;;5032325;28;20953;-69
2022/04/01 12:17:27;;;;;;;0.40;0.40;;;10.00;47.30;;;;;;5030700;28;20684;-67
2022/04/01 12:20:15;;;;;;;0.50;0.50;;;9.90;48.20;;;;;;5031904;28;20870;-67
2022/04/01 12:23:02;;;;;;;0.50;0.50;;;10.10;47.50;;;;;;5031963;28;20433;-69
2022/04/01 12:25:51;;;;;;;0.50;0.50;;;10.50;47.40;;;;;;5030996;28;20934;-68
2022/04/01 12:28:40;;;;;;;0.60;0.60;;;10.30;45.80;;;;;;5032239;28;20430;-68
2022/04/01 12:31:28;;;;;;;0.50;0.50;;;10.30;45.70;;;;;;5031553;28;20428;-68
2022/04/01 12:34:15;;;;;;;0.60;0.60;;;10.10;45.50;;;;;;5031809;28;20430;-68
2022/04/01 12:37:04;;;;;;;1.40;0.80;;;10.40;45.60;;;;;;5032953;28;20433;-67
2022/04/01 12:39:58;;;;;;;0.80;0.80;;;10.50;44.90;;;;;;5031634;28;20998;-67
2022/04/01 12:42:49;;;;;;;1.53;0.83;;;10.90;46.80;;;;;;5031283;28;20425;-68
2022/04/01 12:45:57;;;;;;;0.50;0.50;;;11.20;47.20;;;;;;5032396;28;20429;-67
2022/04/01 12:48:47;;;;;;;0.40;0.40;;;11.60;46.10;;;;;;5032090;28;20417;-70
2022/04/01 12:51:35;;;;;;;0.50;0.50;;;11.80;46.50;;;;;;5050375;28;20425;-68
2022/04/01 12:54:32;;;;;;;0.40;0.40;;;11.90;46.10;;;;;;5052431;28;20984;-68
2022/04/01 12:57:20;;;;;;;0.50;0.50;;;12.00;46.00;;;;;;5051604;28;20944;-66
2022/04/01 13:00:14;;;;;;;1.50;1.50;;;12.20;45.10;;;;;;5050944;28;20566;-67
2022/04/01 13:03:03;;;;;;;0.50;0.50;;;12.50;45.20;;;;;;5053097;28;20420;-67
2022/04/01 13:06:10;;;;;;;0.50;0.50;;;12.80;44.40;;;;;;5056122;28;20439;-68
2022/04/01 13:08:59;;;;;;;0.40;0.40;;;13.00;43.90;;;;;;5055268;28;20947;-68
2022/04/01 13:11:48;;;;;;;1.83;1.47;;;13.50;44.00;;;;;;5055828;28;20427;-69
2022/04/01 13:14:35;;;;;;;0.40;0.40;;;14.00;44.00;;;;;;5056068;28;20420;-67
2022/04/01 13:17:22;;;;;;;0.50;0.50;;;14.50;44.40;;;;;;5055711;28;20505;-67
2022/04/01 13:20:12;;;;;;;1.00;0.83;;;14.70;43.60;;;;;;5055514;28;20903;-68
2022/04/01 13:23:03;;;;;;;0.40;0.40;;;15.10;43.20;;;;;;5055945;28;21067;-66
2022/04/01 13:25:49;;;;;;;0.70;0.70;;;14.80;40.80;;;;;;5056231;28;20421;-68
2022/04/01 13:28:37;;;;;;;0.50;0.50;;;14.90;40.70;;;;;;5055611;28;20797;-66
2022/04/01 13:31:24;;;;;;;0.87;0.87;;;14.70;40.10;;;;;;5055407;28;20814;-68
2022/04/01 13:34:11;;;;;;;0.40;0.40;;;14.60;40.80;;;;;;5056237;28;20259;-67
2022/04/01 13:37:00;;;;;;;0.53;0.53;;;15.00;40.90;;;;;;5056051;28;20439;-68
2022/04/01 13:39:47;;;;;;;0.50;0.50;;;15.50;40.70;;;;;;5055811;28;20475;-65
2022/04/01 13:42:34;;;;;;;0.40;0.40;;;16.20;40.60;;;;;;5055720;28;20416;-67
2022/04/01 13:45:21;;;;;;;0.40;0.40;;;16.40;39.80;;;;;;5055834;28;20687;-67
2022/04/01 13:48:09;;;;;;;0.67;0.50;;;16.40;41.10;;;;;;5054956;28;20209;-67
2022/04/01 13:50:56;;;;;;;0.40;0.40;;;16.60;40.10;;;;;;5055480;28;20217;-67
2022/04/01 13:53:45;;;;;;;2.63;0.93;;;16.50;41.00;;;;;;5049197;28;20216;-68
2022/04/01 13:56:32;;;;;;;0.40;0.40;;;16.10;40.80;;;;;;5053502;28;20201;-68
2022/04/01 13:59:19;;;;;;;0.40;0.40;;;15.30;40.00;;;;;;5053393;28;20221;-68
2022/04/01 14:02:07;;;;;;;0.60;0.50;;;15.10;41.40;;;;;;5033642;28;20702;-67
2022/04/01 14:04:54;;;;;;;0.60;0.60;;;15.20;41.60;;;;;;5034564;28;20210;-67
2022/04/01 14:07:41;;;;;;;0.40;0.40;;;15.30;41.60;;;;;;5035059;28;20205;-67
2022/04/01 14:10:29;;;;;;;0.40;0.40;;;15.30;41.80;;;;;;5035270;28;20221;-67
2022/04/01 14:13:16;;;;;;;0.40;0.40;;;15.40;42.00;;;;;;5034843;28;20199;-67
2022/04/01 14:16:05;;;;;;;0.40;0.40;;;15.40;41.60;;;;;;5034743;28;20694;-68
2022/04/01 14:18:51;;;;;;;0.50;0.47;;;15.40;40.70;;;;;;5035347;28;20308;-68
2022/04/01 14:21:40;;;;;;;0.60;0.60;;;15.40;39.80;;;;;;5035057;28;20212;-68
2022/04/01 14:24:26;;;;;;;0.50;0.50;;;14.90;40.30;;;;;;5034413;28;20748;-69
2022/04/01 14:27:15;;;;;;;0.40;0.40;;;14.70;40.70;;;;;;5034428;28;20208;-70
2022/04/01 14:30:17;;;;;;;0.50;0.47;;;14.80;41.00;;;;;;5035986;28;20714;-67
2022/04/01 14:33:05;;;;;;;1.73;1.00;;;15.00;41.20;;;;;;5033550;28;20213;-68
2022/04/01 14:35:52;;;;;;;0.60;0.60;;;14.40;40.00;;;;;;5034236;28;20421;-67
2022/04/01 14:38:41;;;;;;;0.50;0.50;;;13.80;40.20;;;;;;5034401;28;20210;-68
2022/04/01 14:41:27;;;;;;;0.67;0.63;;;13.60;40.60;;;;;;5034039;28;20425;-67
2022/04/01 14:44:16;;;;;;;0.40;0.40;;;13.50;41.00;;;;;;5035375;28;20429;-68
2022/04/01 14:47:03;;;;;;;0.40;0.40;;;13.20;40.90;;;;;;5033120;28;20417;-69
2022/04/01 14:49:50;;;;;;;6.73;1.57;;;13.10;41.60;;;;;;5034909;28;20437;-70
2022/04/01 14:52:37;;;;;;;0.60;0.60;;;12.90;41.60;;;;;;5033806;28;20417;-69
2022/04/01 14:55:24;;;;;;;0.50;0.50;;;12.40;41.50;;;;;;5034590;28;20432;-70
2022/04/01 14:58:11;;;;;;;0.60;0.50;;;11.80;42.40;;;;;;5051035;28;20424;-68
2022/04/01 15:00:59;;;;;;;0.93;0.70;;;11.40;42.60;;;;;;5053555;28;20472;-69
2022/04/01 15:03:46;;;;;;;0.60;0.60;;;11.10;42.80;;;;;;5053806;28;20856;-68